Time;durP1;ratioP1;P1;durP2;ratioP2;P2;SDS_P1;SDS_P2;PMS_P1;PMS_P2;Temp;Humidity;BMP_temperature;BMP_pressure;BME280_temperature;BME280_humidity;BME280_pressure;Samples;Min_cycle;Max_cycle;Signal;HPM_P1;HPM_P2
2022/06/08 00:10:19;;;;;;;15.37;10.80;;;;;;;15.74;84.42;99822.47;30975224;28;96713;-66
2022/06/08 00:25:20;;;;;;;15.50;10.25;;;;;;;15.72;84.58;99810.31;30989772;28;97483;-65
2022/06/08 00:40:27;;;;;;;14.20;10.07;;;;;;;15.66;84.21;99790.47;30995052;28;97330;-65
2022/06/08 00:55:32;;;;;;;15.13;9.90;;;;;;;15.60;84.49;99775.25;30993032;28;96757;-66
2022/06/08 01:10:43;;;;;;;16.30;12.20;;;;;;;15.54;85.07;99784.97;30991676;28;97002;-65
2022/06/08 01:26:03;;;;;;;17.70;11.83;;;;;;;15.53;84.80;99769.91;30990185;28;96831;-66
2022/06/08 01:41:31;;;;;;;21.60;13.13;;;;;;;15.46;85.05;99766.44;30988410;28;96745;-65
2022/06/08 01:56:31;;;;;;;19.00;12.77;;;;;;;15.37;85.25;99767.69;30986926;28;96794;-65
2022/06/08 02:11:39;;;;;;;21.48;13.93;;;;;;;15.34;85.23;99766.25;30985070;28;97531;-65
2022/06/08 02:26:43;;;;;;;18.37;11.97;;;;;;;15.31;85.67;99749.75;30984119;28;96734;-66
2022/06/08 02:41:49;;;;;;;21.97;13.30;;;;;;;15.34;85.80;99754.72;30979138;28;98270;-66
2022/06/08 02:57:04;;;;;;;20.53;13.50;;;;;;;15.43;86.06;99756.09;30980723;28;96725;-67
2022/06/08 03:12:11;;;;;;;20.77;13.20;;;;;;;15.45;85.86;99758.59;30978725;28;96760;-66
2022/06/08 03:27:12;;;;;;;20.17;12.07;;;;;;;15.59;85.70;99765.53;30978380;28;96759;-66
2022/06/08 03:42:12;;;;;;;18.80;10.97;;;;;;;15.63;86.03;99766.75;30976522;28;97582;-67
2022/06/08 03:57:14;;;;;;;17.95;12.73;;;;;;;15.75;85.40;99772.28;30985356;28;96689;-65
2022/06/08 04:12:16;;;;;;;14.77;10.23;;;;;;;15.99;85.58;99775.28;30993177;28;96743;-66
2022/06/08 04:27:18;;;;;;;18.13;11.97;;;;;;;16.18;84.82;99766.28;30990655;28;96717;-65
2022/06/08 04:42:18;;;;;;;16.00;12.17;;;;;;;16.38;84.39;99762.59;30990182;28;100614;-65
2022/06/08 04:57:19;;;;;;;16.75;9.65;;;;;;;16.85;84.41;99770.25;30987592;28;96901;-65
2022/06/08 05:12:19;;;;;;;14.60;9.80;;;;;;;17.15;83.19;99761.50;30987598;28;97497;-68
2022/06/08 05:27:20;;;;;;;13.63;9.45;;;;;;;17.52;82.35;99765.00;30988850;28;96706;-66
2022/06/08 05:42:20;;;;;;;9.68;7.50;;;;;;;17.85;81.00;99771.00;30985466;28;96655;-66
2022/06/08 05:57:21;;;;;;;8.73;6.65;;;;;;;18.71;80.41;99763.47;30983624;28;97070;-67
2022/06/08 06:12:21;;;;;;;8.48;6.53;;;;;;;19.93;77.59;99752.78;30981217;28;96986;-66
2022/06/08 06:27:21;;;;;;;10.60;6.90;;;;;;;20.68;73.97;99758.09;30982362;28;96669;-66
2022/06/08 06:42:25;;;;;;;10.25;7.20;;;;;;;21.40;70.83;99763.66;30979906;28;96597;-66
2022/06/08 06:57:26;;;;;;;10.63;7.80;;;;;;;21.72;68.37;99761.09;30976838;28;96647;-66
2022/06/08 07:12:26;;;;;;;11.10;7.83;;;;;;;22.28;65.12;99755.38;30965261;28;98238;-66
2022/06/08 07:27:26;;;;;;;9.57;6.77;;;;;;;22.77;64.01;99753.56;30986688;28;96962;-66
2022/06/08 07:42:27;;;;;;;8.90;5.70;;;;;;;23.60;60.63;99761.06;31092820;28;96659;-66
2022/06/08 07:57:27;;;;;;;10.05;5.03;;;;;;;24.83;55.90;99737.75;31095160;28;97248;-66
2022/06/08 08:12:27;;;;;;;4.55;3.67;;;;;;;25.28;50.76;99733.22;31037812;28;96781;-67
2022/06/08 08:27:28;;;;;;;6.38;2.97;;;;;;;26.36;46.61;99737.22;30971558;28;96732;-65
2022/06/08 08:42:28;;;;;;;6.32;2.30;;;;;;;27.35;40.85;99733.16;30980488;28;98001;-66
2022/06/08 08:57:41;;;;;;;4.13;2.80;;;;;;;28.39;38.71;99718.78;30989159;28;96605;-66
2022/06/08 09:12:44;;;;;;;4.53;2.17;;;;;;;28.61;37.62;99718.13;30980784;28;97515;-64
2022/06/08 09:27:50;;;;;;;2.77;2.30;;;;;;;27.80;37.71;99727.38;30971756;28;97043;-68
2022/06/08 09:43:28;;;;;;;4.27;2.10;;;;;;;26.89;38.11;99717.34;30983306;28;97249;-67
2022/06/08 09:58:53;;;;;;;3.77;2.27;;;;;;;26.27;39.22;99697.97;30975134;28;97290;-66
2022/06/08 10:13:57;;;;;;;3.23;2.63;;;;;;;26.25;38.45;99695.53;30972989;28;96795;-66
2022/06/08 10:29:43;;;;;;;4.40;2.30;;;;;;;26.48;37.73;99679.50;30968423;28;97042;-66
2022/06/08 10:44:50;;;;;;;4.10;2.20;;;;;;;26.94;36.83;99667.25;30913897;28;96841;-66
2022/06/08 11:00:13;;;;;;;3.37;1.63;;;;;;;27.93;33.90;99671.06;30974247;28;97600;-66
2022/06/08 11:15:23;;;;;;;4.60;2.60;;;;;;;29.27;32.50;99657.63;30975845;28;96757;-65
2022/06/08 11:30:23;;;;;;;2.20;1.47;;;;;;;30.41;30.71;99641.91;30974798;28;97354;-67
2022/06/08 11:45:40;;;;;;;2.92;1.77;;;;;;;29.98;30.30;99643.31;30969230;28;97340;-67
2022/06/08 12:01:18;;;;;;;2.50;1.67;;;;;;;30.45;29.16;99634.69;30970554;28;97269;-65
2022/06/08 12:16:27;;;;;;;6.30;2.40;;;;;;;29.67;29.09;99615.81;30947915;28;97523;-65
2022/06/08 12:31:33;;;;;;;5.03;3.33;;;;;;;27.06;36.28;99603.97;30982240;28;96942;-66
2022/06/08 12:46:35;;;;;;;4.53;3.50;;;;;;;24.92;41.54;99616.22;30979826;28;97412;-65
2022/06/08 13:01:36;;;;;;;4.13;3.27;;;;;;;23.85;44.22;99603.66;30889141;28;96689;-65
2022/06/08 13:16:36;;;;;;;;;;;;;;;23.34;45.77;99596.28;30850082;28;98276;-64
2022/06/08 13:31:37;;;;;;;4.40;3.60;;;;;;;23.64;45.14;99587.34;30862539;28;97406;-64
2022/06/08 13:46:38;;;;;;;4.60;3.03;;;;;;;24.66;43.79;99575.47;30859846;28;96668;-65
2022/06/08 14:01:40;;;;;;;4.93;2.90;;;;;;;25.70;40.89;99558.47;30970278;28;97496;-64
2022/06/08 14:16:47;;;;;;;3.60;2.60;;;;;;;24.93;41.04;99536.13;30968476;28;97064;-68
2022/06/08 14:31:48;;;;;;;2.90;2.00;;;;;;;25.14;39.34;99522.38;30964737;28;97338;-66
2022/06/08 14:46:53;;;;;;;3.23;2.67;;;;;;;24.76;41.24;99513.91;30965324;28;97433;-65
2022/06/08 15:01:56;;;;;;;3.73;2.50;;;;;;;24.39;41.12;99493.38;30960803;28;97448;-65
2022/06/08 15:16:57;;;;;;;3.97;2.37;;;;;;;24.54;41.09;99478.88;30969311;28;97625;-66
2022/06/08 15:31:58;;;;;;;3.13;2.10;;;;;;;24.17;42.05;99478.22;31023583;28;96767;-66
2022/06/08 15:47:00;;;;;;;;;;;;;;;23.78;42.93;99479.66;31036219;28;96696;-66
2022/06/08 16:02:01;;;;;;;4.40;3.00;;;;;;;23.61;43.43;99462.84;31049343;28;97175;-66
2022/06/08 16:17:01;;;;;;;3.00;2.60;;;;;;;23.30;44.43;99477.25;31042773;28;96702;-65
2022/06/08 16:32:03;;;;;;;4.55;2.97;;;;;;;23.09;45.04;99465.53;31049592;28;97275;-65
2022/06/08 16:47:04;;;;;;;4.33;3.30;;;;;;;23.01;46.03;99462.56;30989548;28;97682;-65
2022/06/08 17:02:06;;;;;;;6.97;3.20;;;;;;;22.40;47.19;99464.06;30982012;28;97070;-67
2022/06/08 17:17:10;;;;;;;5.00;3.80;;;;;;;21.87;48.01;99448.63;30984119;28;97333;-66
2022/06/08 17:32:14;;;;;;;5.90;2.83;;;;;;;21.69;48.35;99441.72;30983707;28;98412;-65
2022/06/08 17:47:15;;;;;;;6.03;4.70;;;;;;;21.33;50.43;99440.66;30982291;28;96786;-66
2022/06/08 18:02:16;;;;;;;6.10;4.70;;;;;;;21.00;51.98;99443.38;30982699;28;98024;-65
2022/06/08 18:17:19;;;;;;;6.70;5.07;;;;;;;20.70;54.30;99439.31;30979744;28;97189;-64
2022/06/08 18:32:20;;;;;;;6.37;4.70;;;;;;;20.34;56.79;99433.50;30979318;28;97065;-67
2022/06/08 18:47:22;;;;;;;7.55;5.25;;;;;;;19.95;58.50;99437.06;30979477;28;96756;-67
2022/06/08 19:02:22;;;;;;;8.07;5.90;;;;;;;19.27;60.30;99456.09;30973913;28;98744;-70
2022/06/08 19:20:40;;;;;;;6.53;4.70;;;;;;;18.82;62.23;99473.13;30965844;28;97149;-66
2022/06/08 19:32:43;;;;;;;6.10;5.00;;;;;;;18.45;63.72;99489.66;30964360;28;97301;-66
2022/06/08 19:47:44;;;;;;;9.25;6.03;;;;;;;18.17;65.05;99485.88;30965767;28;97278;-66
2022/06/08 20:02:45;;;;;;;8.43;6.07;;;;;;;18.27;66.70;99488.78;30887444;28;96919;-66
2022/06/08 20:17:46;;;;;;;7.10;5.75;;;;;;;18.68;66.59;99469.06;30846344;28;99749;-67
2022/06/08 20:32:46;;;;;;;8.27;5.80;;;;;;;18.76;66.47;99482.16;30964162;28;97336;-65
2022/06/08 20:47:47;;;;;;;9.07;5.45;;;;;;;18.51;66.67;99488.72;30982315;28;97531;-66
2022/06/08 21:02:49;;;;;;;50.90;36.33;;;;;;;18.17;67.47;99480.47;30981972;28;96951;-65
2022/06/08 21:17:49;;;;;;;11.90;6.87;;;;;;;18.18;68.25;99484.81;30983565;28;97152;-66
2022/06/08 21:32:50;;;;;;;10.35;7.32;;;;;;;18.38;68.25;99462.81;30985980;28;97622;-66
2022/06/08 21:47:53;;;;;;;11.50;7.10;;;;;;;18.44;68.38;99447.59;30985031;28;97361;-66
2022/06/08 22:02:55;;;;;;;8.53;7.27;;;;;;;18.09;68.50;99449.31;30985269;28;97148;-65
2022/06/08 22:17:56;;;;;;;12.20;7.20;;;;;;;17.86;69.46;99436.66;30983336;28;97347;-64
2022/06/08 22:32:56;;;;;;;13.73;7.20;;;;;;;17.81;70.17;99414.19;30982492;28;97270;-68
2022/06/08 22:47:58;;;;;;;13.60;9.15;;;;;;;17.81;70.17;99393.47;30981932;28;97183;-64
2022/06/08 23:02:59;;;;;;;18.70;8.60;;;;;;;16.90;71.38;99388.44;30978666;28;96638;-66
2022/06/08 23:33:20;;;;;;;13.53;10.83;;;;;;;16.13;74.32;99379.19;30977822;28;97035;-64
2022/06/08 23:48:21;;;;;;;14.33;10.43;;;;;;;15.94;75.46;99372.19;30976791;28;97672;-64
